<?xml version="1.0" encoding="UTF-8"?>
<gpx creator="Wikiloc - https://www.wikiloc.com" version="1.1" xmlns="http://www.topografix.com/GPX/1/1" xmlns:xsi="http://www.w3.org/2001/XMLSchema-instance" xsi:schemaLocation="http://www.topografix.com/GPX/1/1 http://www.topografix.com/GPX/1/1/gpx.xsd">
  <metadata>
    <name>Wikiloc - Peña Negra</name>
    <author>
      <name>wildkids.es</name>
      <link href="https://www.wikiloc.com/wikiloc/user.do?id=1470485">
        <text>wildkids.es on Wikiloc</text>
      </link>
    </author>
    <link href="https://www.wikiloc.com/hiking-trails/pena-negra-83894622">
      <text>Peña Negra on Wikiloc</text>
    </link>
    <time>2021-09-15T12:33:04Z</time>
  </metadata>
  <wpt lat="40.366666" lon="-5.786951">
    <ele>1370.0</ele>
    <time>2021-09-15T12:33:04Z</time>
    <name>Peña de la Cruz</name>
    <cmt></cmt>
    <desc></desc>
  </wpt>
  <wpt lat="40.362485" lon="-5.788853">
    <ele>1430.2</ele>
    <time>2021-09-15T12:33:04Z</time>
    <name>A. Pradera del Canchal Calavero</name>
    <cmt></cmt>
    <desc></desc>
  </wpt>
  <wpt lat="40.358394" lon="-5.791335">
    <ele>1504.2</ele>
    <time>2021-09-15T12:33:04Z</time>
    <name>B. Pradera del Canchal de la Paloma</name>
    <cmt></cmt>
    <desc></desc>
  </wpt>
  <wpt lat="40.353210" lon="-5.797218">
    <ele>1624.2</ele>
    <time>2021-09-15T12:33:04Z</time>
    <name>C. Peña Negra</name>
    <cmt></cmt>
    <desc></desc>
  </wpt>
  <trk>
    <name>Peña Negra</name>
    <cmt></cmt>
    <desc></desc>
    <trkseg>
      <trkpt lat="40.365959" lon="-5.787406">
        <ele>1372.954</ele>
        <time>2021-09-15T12:33:31Z</time>
      </trkpt>
      <trkpt lat="40.365593" lon="-5.787606">
        <ele>1377.356</ele>
        <time>2021-09-15T12:34:11Z</time>
      </trkpt>
      <trkpt lat="40.365271" lon="-5.787616">
        <ele>1384.011</ele>
        <time>2021-09-15T12:34:51Z</time>
      </trkpt>
      <trkpt lat="40.364749" lon="-5.787649">
        <ele>1392.408</ele>
        <time>2021-09-15T12:35:31Z</time>
      </trkpt>
      <trkpt lat="40.364398" lon="-5.787329">
        <ele>1395.073</ele>
        <time>2021-09-15T12:36:11Z</time>
      </trkpt>
      <trkpt lat="40.364261" lon="-5.787120">
        <ele>1395.458</ele>
        <time>2021-09-15T12:36:51Z</time>
      </trkpt>
      <trkpt lat="40.364057" lon="-5.786932">
        <ele>1397.183</ele>
        <time>2021-09-15T12:37:31Z</time>
      </trkpt>
      <trkpt lat="40.363931" lon="-5.786872">
        <ele>1397.834</ele>
        <time>2021-09-15T12:38:11Z</time>
      </trkpt>
      <trkpt lat="40.363777" lon="-5.786802">
        <ele>1397.769</ele>
        <time>2021-09-15T12:38:51Z</time>
      </trkpt>
      <trkpt lat="40.363537" lon="-5.786895">
        <ele>1399.191</ele>
        <time>2021-09-15T12:39:31Z</time>
      </trkpt>
      <trkpt lat="40.363450" lon="-5.787093">
        <ele>1401.917</ele>
        <time>2021-09-15T12:40:11Z</time>
      </trkpt>
      <trkpt lat="40.363365" lon="-5.787123">
        <ele>1402.327</ele>
        <time>2021-09-15T12:40:51Z</time>
      </trkpt>
      <trkpt lat="40.363257" lon="-5.787169">
        <ele>1402.829</ele>
        <time>2021-09-15T12:41:31Z</time>
      </trkpt>
      <trkpt lat="40.363248" lon="-5.787333">
        <ele>1406.100</ele>
        <time>2021-09-15T12:42:11Z</time>
      </trkpt>
      <trkpt lat="40.363234" lon="-5.787587">
        <ele>1411.620</ele>
        <time>2021-09-15T12:42:51Z</time>
      </trkpt>
      <trkpt lat="40.363238" lon="-5.787768">
        <ele>1415.808</ele>
        <time>2021-09-15T12:43:31Z</time>
      </trkpt>
      <trkpt lat="40.363132" lon="-5.787884">
        <ele>1418.530</ele>
        <time>2021-09-15T12:44:11Z</time>
      </trkpt>
      <trkpt lat="40.363073" lon="-5.788000">
        <ele>1420.975</ele>
        <time>2021-09-15T12:44:51Z</time>
      </trkpt>
      <trkpt lat="40.362937" lon="-5.788211">
        <ele>1425.470</ele>
        <time>2021-09-15T12:45:31Z</time>
      </trkpt>
      <trkpt lat="40.362823" lon="-5.788333">
        <ele>1427.391</ele>
        <time>2021-09-15T12:46:11Z</time>
      </trkpt>
      <trkpt lat="40.362701" lon="-5.788440">
        <ele>1428.756</ele>
        <time>2021-09-15T12:46:51Z</time>
      </trkpt>
      <trkpt lat="40.362641" lon="-5.788478">
        <ele>1429.348</ele>
        <time>2021-09-15T12:47:31Z</time>
      </trkpt>
      <trkpt lat="40.362608" lon="-5.788693">
        <ele>1430.034</ele>
        <time>2021-09-15T12:48:11Z</time>
      </trkpt>
      <trkpt lat="40.362570" lon="-5.788818">
        <ele>1430.024</ele>
        <time>2021-09-15T12:48:51Z</time>
      </trkpt>
      <trkpt lat="40.362304" lon="-5.788838">
        <ele>1432.031</ele>
        <time>2021-09-15T12:49:31Z</time>
      </trkpt>
      <trkpt lat="40.362129" lon="-5.788792">
        <ele>1435.161</ele>
        <time>2021-09-15T12:50:11Z</time>
      </trkpt>
      <trkpt lat="40.362009" lon="-5.788805">
        <ele>1438.307</ele>
        <time>2021-09-15T12:50:51Z</time>
      </trkpt>
      <trkpt lat="40.361889" lon="-5.788783">
        <ele>1442.208</ele>
        <time>2021-09-15T12:51:31Z</time>
      </trkpt>
      <trkpt lat="40.361811" lon="-5.788811">
        <ele>1445.471</ele>
        <time>2021-09-15T12:52:11Z</time>
      </trkpt>
      <trkpt lat="40.361696" lon="-5.788721">
        <ele>1449.196</ele>
        <time>2021-09-15T12:52:51Z</time>
      </trkpt>
      <trkpt lat="40.361595" lon="-5.788739">
        <ele>1452.871</ele>
        <time>2021-09-15T12:53:31Z</time>
      </trkpt>
      <trkpt lat="40.361470" lon="-5.788838">
        <ele>1458.472</ele>
        <time>2021-09-15T12:54:11Z</time>
      </trkpt>
      <trkpt lat="40.361333" lon="-5.788920">
        <ele>1463.647</ele>
        <time>2021-09-15T12:54:51Z</time>
      </trkpt>
      <trkpt lat="40.361245" lon="-5.788919">
        <ele>1465.599</ele>
        <time>2021-09-15T12:55:31Z</time>
      </trkpt>
      <trkpt lat="40.361180" lon="-5.788981">
        <ele>1467.675</ele>
        <time>2021-09-15T12:56:11Z</time>
      </trkpt>
      <trkpt lat="40.361053" lon="-5.789011">
        <ele>1469.945</ele>
        <time>2021-09-15T12:56:51Z</time>
      </trkpt>
      <trkpt lat="40.360931" lon="-5.789051">
        <ele>1471.764</ele>
        <time>2021-09-15T12:57:31Z</time>
      </trkpt>
      <trkpt lat="40.360901" lon="-5.789121">
        <ele>1472.806</ele>
        <time>2021-09-15T12:58:11Z</time>
      </trkpt>
      <trkpt lat="40.360834" lon="-5.789183">
        <ele>1474.116</ele>
        <time>2021-09-15T12:58:51Z</time>
      </trkpt>
      <trkpt lat="40.360972" lon="-5.789302">
        <ele>1472.508</ele>
        <time>2021-09-15T12:59:31Z</time>
      </trkpt>
      <trkpt lat="40.361007" lon="-5.789392">
        <ele>1471.944</ele>
        <time>2021-09-15T13:00:11Z</time>
      </trkpt>
      <trkpt lat="40.360939" lon="-5.789492">
        <ele>1472.389</ele>
        <time>2021-09-15T13:00:51Z</time>
      </trkpt>
      <trkpt lat="40.360878" lon="-5.789521">
        <ele>1473.014</ele>
        <time>2021-09-15T13:01:31Z</time>
      </trkpt>
      <trkpt lat="40.360752" lon="-5.789513">
        <ele>1476.165</ele>
        <time>2021-09-15T13:02:11Z</time>
      </trkpt>
      <trkpt lat="40.360651" lon="-5.789542">
        <ele>1478.540</ele>
        <time>2021-09-15T13:02:51Z</time>
      </trkpt>
      <trkpt lat="40.360577" lon="-5.789584">
        <ele>1480.442</ele>
        <time>2021-09-15T13:03:31Z</time>
      </trkpt>
      <trkpt lat="40.360474" lon="-5.789613">
        <ele>1482.688</ele>
        <time>2021-09-15T13:04:11Z</time>
      </trkpt>
      <trkpt lat="40.360271" lon="-5.789678">
        <ele>1486.328</ele>
        <time>2021-09-15T13:04:51Z</time>
      </trkpt>
      <trkpt lat="40.360140" lon="-5.789737">
        <ele>1489.539</ele>
        <time>2021-09-15T13:05:31Z</time>
      </trkpt>
      <trkpt lat="40.359874" lon="-5.789813">
        <ele>1496.801</ele>
        <time>2021-09-15T13:06:11Z</time>
      </trkpt>
      <trkpt lat="40.359782" lon="-5.789893">
        <ele>1499.121</ele>
        <time>2021-09-15T13:06:51Z</time>
      </trkpt>
      <trkpt lat="40.359737" lon="-5.790101">
        <ele>1500.808</ele>
        <time>2021-09-15T13:07:31Z</time>
      </trkpt>
      <trkpt lat="40.359717" lon="-5.790163">
        <ele>1501.931</ele>
        <time>2021-09-15T13:08:11Z</time>
      </trkpt>
      <trkpt lat="40.359566" lon="-5.790337">
        <ele>1506.716</ele>
        <time>2021-09-15T13:08:51Z</time>
      </trkpt>
      <trkpt lat="40.359373" lon="-5.790557">
        <ele>1510.091</ele>
        <time>2021-09-15T13:09:31Z</time>
      </trkpt>
      <trkpt lat="40.359214" lon="-5.790725">
        <ele>1510.042</ele>
        <time>2021-09-15T13:10:11Z</time>
      </trkpt>
      <trkpt lat="40.359076" lon="-5.790896">
        <ele>1509.927</ele>
        <time>2021-09-15T13:10:51Z</time>
      </trkpt>
      <trkpt lat="40.358911" lon="-5.790968">
        <ele>1509.699</ele>
        <time>2021-09-15T13:11:31Z</time>
      </trkpt>
      <trkpt lat="40.358753" lon="-5.791084">
        <ele>1508.245</ele>
        <time>2021-09-15T13:12:11Z</time>
      </trkpt>
      <trkpt lat="40.358564" lon="-5.791175">
        <ele>1506.035</ele>
        <time>2021-09-15T13:12:51Z</time>
      </trkpt>
      <trkpt lat="40.358428" lon="-5.791306">
        <ele>1504.476</ele>
        <time>2021-09-15T13:13:31Z</time>
      </trkpt>
      <trkpt lat="40.358328" lon="-5.791389">
        <ele>1503.990</ele>
        <time>2021-09-15T13:14:11Z</time>
      </trkpt>
      <trkpt lat="40.358169" lon="-5.791271">
        <ele>1500.819</ele>
        <time>2021-09-15T13:14:51Z</time>
      </trkpt>
      <trkpt lat="40.358081" lon="-5.791279">
        <ele>1499.608</ele>
        <time>2021-09-15T13:15:31Z</time>
      </trkpt>
      <trkpt lat="40.358003" lon="-5.791217">
        <ele>1498.195</ele>
        <time>2021-09-15T13:16:11Z</time>
      </trkpt>
      <trkpt lat="40.357966" lon="-5.791091">
        <ele>1497.010</ele>
        <time>2021-09-15T13:16:51Z</time>
      </trkpt>
      <trkpt lat="40.357945" lon="-5.790989">
        <ele>1498.135</ele>
        <time>2021-09-15T13:17:31Z</time>
      </trkpt>
      <trkpt lat="40.357952" lon="-5.790940">
        <ele>1498.896</ele>
        <time>2021-09-15T13:18:11Z</time>
      </trkpt>
      <trkpt lat="40.357794" lon="-5.790742">
        <ele>1499.561</ele>
        <time>2021-09-15T13:18:51Z</time>
      </trkpt>
      <trkpt lat="40.357732" lon="-5.790691">
        <ele>1498.453</ele>
        <time>2021-09-15T13:19:31Z</time>
      </trkpt>
      <trkpt lat="40.357596" lon="-5.790709">
        <ele>1495.279</ele>
        <time>2021-09-15T13:20:11Z</time>
      </trkpt>
      <trkpt lat="40.357482" lon="-5.790795">
        <ele>1492.159</ele>
        <time>2021-09-15T13:20:51Z</time>
      </trkpt>
      <trkpt lat="40.357367" lon="-5.790891">
        <ele>1490.998</ele>
        <time>2021-09-15T13:21:31Z</time>
      </trkpt>
      <trkpt lat="40.357204" lon="-5.790876">
        <ele>1490.015</ele>
        <time>2021-09-15T13:22:11Z</time>
      </trkpt>
      <trkpt lat="40.357140" lon="-5.790864">
        <ele>1489.826</ele>
        <time>2021-09-15T13:22:51Z</time>
      </trkpt>
      <trkpt lat="40.357101" lon="-5.790892">
        <ele>1489.708</ele>
        <time>2021-09-15T13:23:31Z</time>
      </trkpt>
      <trkpt lat="40.356909" lon="-5.790902">
        <ele>1489.587</ele>
        <time>2021-09-15T13:24:11Z</time>
      </trkpt>
      <trkpt lat="40.356857" lon="-5.790934">
        <ele>1489.822</ele>
        <time>2021-09-15T13:24:51Z</time>
      </trkpt>
      <trkpt lat="40.356692" lon="-5.791107">
        <ele>1491.997</ele>
        <time>2021-09-15T13:25:31Z</time>
      </trkpt>
      <trkpt lat="40.356582" lon="-5.791280">
        <ele>1492.538</ele>
        <time>2021-09-15T13:26:11Z</time>
      </trkpt>
      <trkpt lat="40.356365" lon="-5.791581">
        <ele>1494.323</ele>
        <time>2021-09-15T13:26:51Z</time>
      </trkpt>
      <trkpt lat="40.356167" lon="-5.791856">
        <ele>1495.665</ele>
        <time>2021-09-15T13:27:31Z</time>
      </trkpt>
      <trkpt lat="40.355973" lon="-5.792045">
        <ele>1494.911</ele>
        <time>2021-09-15T13:28:11Z</time>
      </trkpt>
      <trkpt lat="40.355847" lon="-5.792144">
        <ele>1494.391</ele>
        <time>2021-09-15T13:28:51Z</time>
      </trkpt>
      <trkpt lat="40.355686" lon="-5.792211">
        <ele>1495.495</ele>
        <time>2021-09-15T13:29:31Z</time>
      </trkpt>
      <trkpt lat="40.355588" lon="-5.792305">
        <ele>1496.849</ele>
        <time>2021-09-15T13:30:11Z</time>
      </trkpt>
      <trkpt lat="40.355540" lon="-5.792479">
        <ele>1498.923</ele>
        <time>2021-09-15T13:30:51Z</time>
      </trkpt>
      <trkpt lat="40.355546" lon="-5.792654">
        <ele>1501.308</ele>
        <time>2021-09-15T13:31:31Z</time>
      </trkpt>
      <trkpt lat="40.355634" lon="-5.792817">
        <ele>1503.957</ele>
        <time>2021-09-15T13:32:11Z</time>
      </trkpt>
      <trkpt lat="40.355905" lon="-5.792883">
        <ele>1506.372</ele>
        <time>2021-09-15T13:32:51Z</time>
      </trkpt>
      <trkpt lat="40.356106" lon="-5.792929">
        <ele>1509.327</ele>
        <time>2021-09-15T13:33:31Z</time>
      </trkpt>
      <trkpt lat="40.356279" lon="-5.792852">
        <ele>1510.048</ele>
        <time>2021-09-15T13:34:11Z</time>
      </trkpt>
      <trkpt lat="40.356342" lon="-5.792843">
        <ele>1510.863</ele>
        <time>2021-09-15T13:34:51Z</time>
      </trkpt>
      <trkpt lat="40.356645" lon="-5.792875">
        <ele>1512.835</ele>
        <time>2021-09-15T13:35:31Z</time>
      </trkpt>
      <trkpt lat="40.357000" lon="-5.793170">
        <ele>1516.871</ele>
        <time>2021-09-15T13:36:11Z</time>
      </trkpt>
      <trkpt lat="40.357056" lon="-5.793310">
        <ele>1517.881</ele>
        <time>2021-09-15T13:36:51Z</time>
      </trkpt>
      <trkpt lat="40.357044" lon="-5.793424">
        <ele>1519.126</ele>
        <time>2021-09-15T13:37:31Z</time>
      </trkpt>
      <trkpt lat="40.356984" lon="-5.793715">
        <ele>1522.147</ele>
        <time>2021-09-15T13:38:11Z</time>
      </trkpt>
      <trkpt lat="40.356945" lon="-5.794181">
        <ele>1526.111</ele>
        <time>2021-09-15T13:38:51Z</time>
      </trkpt>
      <trkpt lat="40.356913" lon="-5.794926">
        <ele>1533.308</ele>
        <time>2021-09-15T13:39:31Z</time>
      </trkpt>
      <trkpt lat="40.356955" lon="-5.794968">
        <ele>1533.630</ele>
        <time>2021-09-15T13:40:11Z</time>
      </trkpt>
      <trkpt lat="40.357057" lon="-5.794958">
        <ele>1534.795</ele>
        <time>2021-09-15T13:40:51Z</time>
      </trkpt>
      <trkpt lat="40.357267" lon="-5.794883">
        <ele>1535.980</ele>
        <time>2021-09-15T13:41:31Z</time>
      </trkpt>
      <trkpt lat="40.357379" lon="-5.794830">
        <ele>1537.051</ele>
        <time>2021-09-15T13:42:11Z</time>
      </trkpt>
      <trkpt lat="40.357439" lon="-5.794864">
        <ele>1538.876</ele>
        <time>2021-09-15T13:42:51Z</time>
      </trkpt>
      <trkpt lat="40.357457" lon="-5.794917">
        <ele>1540.068</ele>
        <time>2021-09-15T13:43:31Z</time>
      </trkpt>
      <trkpt lat="40.357348" lon="-5.795093">
        <ele>1542.254</ele>
        <time>2021-09-15T13:44:11Z</time>
      </trkpt>
      <trkpt lat="40.357264" lon="-5.795285">
        <ele>1545.854</ele>
        <time>2021-09-15T13:44:51Z</time>
      </trkpt>
      <trkpt lat="40.357116" lon="-5.795442">
        <ele>1548.091</ele>
        <time>2021-09-15T13:45:31Z</time>
      </trkpt>
      <trkpt lat="40.356875" lon="-5.795714">
        <ele>1552.481</ele>
        <time>2021-09-15T13:46:11Z</time>
      </trkpt>
      <trkpt lat="40.356743" lon="-5.795765">
        <ele>1551.219</ele>
        <time>2021-09-15T13:46:51Z</time>
      </trkpt>
      <trkpt lat="40.356609" lon="-5.795917">
        <ele>1552.008</ele>
        <time>2021-09-15T13:47:31Z</time>
      </trkpt>
      <trkpt lat="40.356469" lon="-5.796377">
        <ele>1557.727</ele>
        <time>2021-09-15T13:48:11Z</time>
      </trkpt>
      <trkpt lat="40.356350" lon="-5.796560">
        <ele>1559.922</ele>
        <time>2021-09-15T13:48:51Z</time>
      </trkpt>
      <trkpt lat="40.356086" lon="-5.796961">
        <ele>1569.167</ele>
        <time>2021-09-15T13:49:31Z</time>
      </trkpt>
      <trkpt lat="40.355974" lon="-5.797050">
        <ele>1570.488</ele>
        <time>2021-09-15T13:50:11Z</time>
      </trkpt>
      <trkpt lat="40.355824" lon="-5.797176">
        <ele>1573.413</ele>
        <time>2021-09-15T13:50:51Z</time>
      </trkpt>
      <trkpt lat="40.355700" lon="-5.797192">
        <ele>1574.435</ele>
        <time>2021-09-15T13:51:31Z</time>
      </trkpt>
      <trkpt lat="40.355424" lon="-5.797229">
        <ele>1577.171</ele>
        <time>2021-09-15T13:52:11Z</time>
      </trkpt>
      <trkpt lat="40.355265" lon="-5.797278">
        <ele>1579.151</ele>
        <time>2021-09-15T13:52:51Z</time>
      </trkpt>
      <trkpt lat="40.355155" lon="-5.797350">
        <ele>1579.564</ele>
        <time>2021-09-15T13:53:31Z</time>
      </trkpt>
      <trkpt lat="40.354891" lon="-5.797767">
        <ele>1585.006</ele>
        <time>2021-09-15T13:54:11Z</time>
      </trkpt>
      <trkpt lat="40.354730" lon="-5.798053">
        <ele>1585.116</ele>
        <time>2021-09-15T13:54:51Z</time>
      </trkpt>
      <trkpt lat="40.354591" lon="-5.798215">
        <ele>1586.908</ele>
        <time>2021-09-15T13:55:31Z</time>
      </trkpt>
      <trkpt lat="40.354528" lon="-5.798310">
        <ele>1587.894</ele>
        <time>2021-09-15T13:56:11Z</time>
      </trkpt>
      <trkpt lat="40.354388" lon="-5.798320">
        <ele>1589.299</ele>
        <time>2021-09-15T13:56:51Z</time>
      </trkpt>
      <trkpt lat="40.354238" lon="-5.798315">
        <ele>1589.764</ele>
        <time>2021-09-15T13:57:31Z</time>
      </trkpt>
      <trkpt lat="40.354075" lon="-5.798279">
        <ele>1590.145</ele>
        <time>2021-09-15T13:58:11Z</time>
      </trkpt>
      <trkpt lat="40.353890" lon="-5.798201">
        <ele>1590.030</ele>
        <time>2021-09-15T13:58:51Z</time>
      </trkpt>
      <trkpt lat="40.353780" lon="-5.798118">
        <ele>1589.982</ele>
        <time>2021-09-15T13:59:31Z</time>
      </trkpt>
      <trkpt lat="40.353774" lon="-5.797874">
        <ele>1590.838</ele>
        <time>2021-09-15T14:00:11Z</time>
      </trkpt>
      <trkpt lat="40.353845" lon="-5.797581">
        <ele>1592.988</ele>
        <time>2021-09-15T14:00:51Z</time>
      </trkpt>
      <trkpt lat="40.353893" lon="-5.797478">
        <ele>1593.496</ele>
        <time>2021-09-15T14:01:31Z</time>
      </trkpt>
      <trkpt lat="40.353926" lon="-5.797389">
        <ele>1594.631</ele>
        <time>2021-09-15T14:02:11Z</time>
      </trkpt>
      <trkpt lat="40.353926" lon="-5.797316">
        <ele>1596.024</ele>
        <time>2021-09-15T14:02:51Z</time>
      </trkpt>
      <trkpt lat="40.353977" lon="-5.797176">
        <ele>1596.408</ele>
        <time>2021-09-15T14:03:31Z</time>
      </trkpt>
      <trkpt lat="40.353956" lon="-5.796972">
        <ele>1597.957</ele>
        <time>2021-09-15T14:04:11Z</time>
      </trkpt>
      <trkpt lat="40.353919" lon="-5.796785">
        <ele>1599.332</ele>
        <time>2021-09-15T14:04:51Z</time>
      </trkpt>
      <trkpt lat="40.353858" lon="-5.796713">
        <ele>1600.387</ele>
        <time>2021-09-15T14:05:31Z</time>
      </trkpt>
      <trkpt lat="40.353810" lon="-5.796702">
        <ele>1600.748</ele>
        <time>2021-09-15T14:06:11Z</time>
      </trkpt>
      <trkpt lat="40.353772" lon="-5.796705">
        <ele>1601.083</ele>
        <time>2021-09-15T14:06:51Z</time>
      </trkpt>
      <trkpt lat="40.353671" lon="-5.796888">
        <ele>1603.445</ele>
        <time>2021-09-15T14:07:31Z</time>
      </trkpt>
      <trkpt lat="40.353640" lon="-5.796927">
        <ele>1604.331</ele>
        <time>2021-09-15T14:08:11Z</time>
      </trkpt>
      <trkpt lat="40.353593" lon="-5.796893">
        <ele>1605.431</ele>
        <time>2021-09-15T14:08:51Z</time>
      </trkpt>
      <trkpt lat="40.353567" lon="-5.796846">
        <ele>1606.163</ele>
        <time>2021-09-15T14:09:31Z</time>
      </trkpt>
      <trkpt lat="40.353505" lon="-5.796824">
        <ele>1608.844</ele>
        <time>2021-09-15T14:10:11Z</time>
      </trkpt>
      <trkpt lat="40.353447" lon="-5.796817">
        <ele>1611.418</ele>
        <time>2021-09-15T14:10:51Z</time>
      </trkpt>
      <trkpt lat="40.353400" lon="-5.796869">
        <ele>1614.808</ele>
        <time>2021-09-15T14:11:31Z</time>
      </trkpt>
      <trkpt lat="40.353370" lon="-5.796918">
        <ele>1617.444</ele>
        <time>2021-09-15T14:12:11Z</time>
      </trkpt>
      <trkpt lat="40.353358" lon="-5.796958">
        <ele>1618.899</ele>
        <time>2021-09-15T14:12:51Z</time>
      </trkpt>
      <trkpt lat="40.353334" lon="-5.797035">
        <ele>1620.654</ele>
        <time>2021-09-15T14:13:31Z</time>
      </trkpt>
      <trkpt lat="40.353299" lon="-5.797100">
        <ele>1621.575</ele>
        <time>2021-09-15T14:14:11Z</time>
      </trkpt>
      <trkpt lat="40.353289" lon="-5.797186">
        <ele>1622.510</ele>
        <time>2021-09-15T14:14:51Z</time>
      </trkpt>
      <trkpt lat="40.353235" lon="-5.797204">
        <ele>1623.522</ele>
        <time>2021-09-15T14:15:31Z</time>
      </trkpt>
      <trkpt lat="40.353201" lon="-5.797220">
        <ele>1624.448</ele>
        <time>2021-09-15T14:16:11Z</time>
      </trkpt>
      <trkpt lat="40.353154" lon="-5.797227">
        <ele>1625.148</ele>
        <time>2021-09-15T14:16:51Z</time>
      </trkpt>
      <trkpt lat="40.353151" lon="-5.797175">
        <ele>1624.517</ele>
        <time>2021-09-15T14:17:31Z</time>
      </trkpt>
      <trkpt lat="40.353169" lon="-5.797222">
        <ele>1625.087</ele>
        <time>2021-09-15T14:18:11Z</time>
      </trkpt>
      <trkpt lat="40.353213" lon="-5.797211">
        <ele>1624.015</ele>
        <time>2021-09-15T14:18:51Z</time>
      </trkpt>
      <trkpt lat="40.353256" lon="-5.797198">
        <ele>1623.108</ele>
        <time>2021-09-15T14:19:31Z</time>
      </trkpt>
      <trkpt lat="40.353292" lon="-5.797173">
        <ele>1622.319</ele>
        <time>2021-09-15T14:20:11Z</time>
      </trkpt>
      <trkpt lat="40.353296" lon="-5.797123">
        <ele>1621.814</ele>
        <time>2021-09-15T14:20:51Z</time>
      </trkpt>
      <trkpt lat="40.353313" lon="-5.797071">
        <ele>1621.159</ele>
        <time>2021-09-15T14:21:31Z</time>
      </trkpt>
      <trkpt lat="40.353344" lon="-5.797006">
        <ele>1619.850</ele>
        <time>2021-09-15T14:22:11Z</time>
      </trkpt>
      <trkpt lat="40.353366" lon="-5.796930">
        <ele>1617.955</ele>
        <time>2021-09-15T14:22:51Z</time>
      </trkpt>
      <trkpt lat="40.353383" lon="-5.796896">
        <ele>1616.227</ele>
        <time>2021-09-15T14:23:31Z</time>
      </trkpt>
      <trkpt lat="40.353420" lon="-5.796841">
        <ele>1613.263</ele>
        <time>2021-09-15T14:24:11Z</time>
      </trkpt>
      <trkpt lat="40.353466" lon="-5.796820">
        <ele>1610.663</ele>
        <time>2021-09-15T14:24:51Z</time>
      </trkpt>
      <trkpt lat="40.353537" lon="-5.796831">
        <ele>1607.374</ele>
        <time>2021-09-15T14:25:31Z</time>
      </trkpt>
      <trkpt lat="40.353590" lon="-5.796867">
        <ele>1605.256</ele>
        <time>2021-09-15T14:26:11Z</time>
      </trkpt>
      <trkpt lat="40.353611" lon="-5.796916">
        <ele>1604.721</ele>
        <time>2021-09-15T14:26:51Z</time>
      </trkpt>
      <trkpt lat="40.353653" lon="-5.796905">
        <ele>1603.908</ele>
        <time>2021-09-15T14:27:31Z</time>
      </trkpt>
      <trkpt lat="40.353689" lon="-5.796847">
        <ele>1602.865</ele>
        <time>2021-09-15T14:28:11Z</time>
      </trkpt>
      <trkpt lat="40.353749" lon="-5.796733">
        <ele>1601.410</ele>
        <time>2021-09-15T14:28:51Z</time>
      </trkpt>
      <trkpt lat="40.353789" lon="-5.796696">
        <ele>1600.855</ele>
        <time>2021-09-15T14:29:31Z</time>
      </trkpt>
      <trkpt lat="40.353834" lon="-5.796704">
        <ele>1600.516</ele>
        <time>2021-09-15T14:30:11Z</time>
      </trkpt>
      <trkpt lat="40.353886" lon="-5.796729">
        <ele>1600.061</ele>
        <time>2021-09-15T14:30:51Z</time>
      </trkpt>
      <trkpt lat="40.353931" lon="-5.796812">
        <ele>1599.013</ele>
        <time>2021-09-15T14:31:31Z</time>
      </trkpt>
      <trkpt lat="40.353956" lon="-5.796998">
        <ele>1597.839</ele>
        <time>2021-09-15T14:32:11Z</time>
      </trkpt>
      <trkpt lat="40.353979" lon="-5.797125">
        <ele>1596.519</ele>
        <time>2021-09-15T14:32:51Z</time>
      </trkpt>
      <trkpt lat="40.353971" lon="-5.797214">
        <ele>1596.414</ele>
        <time>2021-09-15T14:33:31Z</time>
      </trkpt>
      <trkpt lat="40.353920" lon="-5.797350">
        <ele>1595.554</ele>
        <time>2021-09-15T14:34:11Z</time>
      </trkpt>
      <trkpt lat="40.353923" lon="-5.797423">
        <ele>1594.009</ele>
        <time>2021-09-15T14:34:51Z</time>
      </trkpt>
      <trkpt lat="40.353871" lon="-5.797506">
        <ele>1593.408</ele>
        <time>2021-09-15T14:35:31Z</time>
      </trkpt>
      <trkpt lat="40.353822" lon="-5.797683">
        <ele>1591.929</ele>
        <time>2021-09-15T14:36:11Z</time>
      </trkpt>
      <trkpt lat="40.353790" lon="-5.797779">
        <ele>1591.194</ele>
        <time>2021-09-15T14:36:51Z</time>
      </trkpt>
      <trkpt lat="40.353767" lon="-5.797851">
        <ele>1591.129</ele>
        <time>2021-09-15T14:37:31Z</time>
      </trkpt>
      <trkpt lat="40.353777" lon="-5.797933">
        <ele>1590.320</ele>
        <time>2021-09-15T14:38:11Z</time>
      </trkpt>
      <trkpt lat="40.353766" lon="-5.798008">
        <ele>1589.875</ele>
        <time>2021-09-15T14:38:51Z</time>
      </trkpt>
      <trkpt lat="40.353816" lon="-5.798152">
        <ele>1590.097</ele>
        <time>2021-09-15T14:39:31Z</time>
      </trkpt>
      <trkpt lat="40.353853" lon="-5.798189">
        <ele>1590.273</ele>
        <time>2021-09-15T14:40:11Z</time>
      </trkpt>
      <trkpt lat="40.353955" lon="-5.798236">
        <ele>1590.183</ele>
        <time>2021-09-15T14:40:51Z</time>
      </trkpt>
      <trkpt lat="40.354029" lon="-5.798269">
        <ele>1590.168</ele>
        <time>2021-09-15T14:41:31Z</time>
      </trkpt>
      <trkpt lat="40.354146" lon="-5.798297">
        <ele>1589.942</ele>
        <time>2021-09-15T14:42:11Z</time>
      </trkpt>
      <trkpt lat="40.354299" lon="-5.798336">
        <ele>1589.526</ele>
        <time>2021-09-15T14:42:51Z</time>
      </trkpt>
      <trkpt lat="40.354437" lon="-5.798333">
        <ele>1589.008</ele>
        <time>2021-09-15T14:43:31Z</time>
      </trkpt>
      <trkpt lat="40.354562" lon="-5.798283">
        <ele>1587.364</ele>
        <time>2021-09-15T14:44:11Z</time>
      </trkpt>
      <trkpt lat="40.354648" lon="-5.798150">
        <ele>1586.129</ele>
        <time>2021-09-15T14:44:51Z</time>
      </trkpt>
      <trkpt lat="40.354764" lon="-5.797998">
        <ele>1585.294</ele>
        <time>2021-09-15T14:45:31Z</time>
      </trkpt>
      <trkpt lat="40.354979" lon="-5.797634">
        <ele>1582.885</ele>
        <time>2021-09-15T14:46:11Z</time>
      </trkpt>
      <trkpt lat="40.355263" lon="-5.797312">
        <ele>1579.820</ele>
        <time>2021-09-15T14:46:51Z</time>
      </trkpt>
      <trkpt lat="40.355369" lon="-5.797261">
        <ele>1578.362</ele>
        <time>2021-09-15T14:47:31Z</time>
      </trkpt>
      <trkpt lat="40.355590" lon="-5.797209">
        <ele>1575.498</ele>
        <time>2021-09-15T14:48:11Z</time>
      </trkpt>
      <trkpt lat="40.355783" lon="-5.797168">
        <ele>1573.338</ele>
        <time>2021-09-15T14:48:51Z</time>
      </trkpt>
      <trkpt lat="40.355903" lon="-5.797119">
        <ele>1572.021</ele>
        <time>2021-09-15T14:49:31Z</time>
      </trkpt>
      <trkpt lat="40.356034" lon="-5.797010">
        <ele>1569.941</ele>
        <time>2021-09-15T14:50:11Z</time>
      </trkpt>
      <trkpt lat="40.356157" lon="-5.796861">
        <ele>1566.905</ele>
        <time>2021-09-15T14:50:51Z</time>
      </trkpt>
      <trkpt lat="40.356248" lon="-5.796716">
        <ele>1563.008</ele>
        <time>2021-09-15T14:51:31Z</time>
      </trkpt>
      <trkpt lat="40.356318" lon="-5.796620">
        <ele>1560.980</ele>
        <time>2021-09-15T14:52:11Z</time>
      </trkpt>
      <trkpt lat="40.356450" lon="-5.796431">
        <ele>1558.445</ele>
        <time>2021-09-15T14:52:51Z</time>
      </trkpt>
      <trkpt lat="40.356501" lon="-5.796260">
        <ele>1556.430</ele>
        <time>2021-09-15T14:53:31Z</time>
      </trkpt>
      <trkpt lat="40.356575" lon="-5.795998">
        <ele>1553.161</ele>
        <time>2021-09-15T14:54:11Z</time>
      </trkpt>
      <trkpt lat="40.356675" lon="-5.795841">
        <ele>1551.316</ele>
        <time>2021-09-15T14:54:51Z</time>
      </trkpt>
      <trkpt lat="40.356811" lon="-5.795734">
        <ele>1551.898</ele>
        <time>2021-09-15T14:55:31Z</time>
      </trkpt>
      <trkpt lat="40.356939" lon="-5.795636">
        <ele>1551.284</ele>
        <time>2021-09-15T14:56:11Z</time>
      </trkpt>
      <trkpt lat="40.357195" lon="-5.795371">
        <ele>1547.164</ele>
        <time>2021-09-15T14:56:51Z</time>
      </trkpt>
      <trkpt lat="40.357291" lon="-5.795194">
        <ele>1543.989</ele>
        <time>2021-09-15T14:57:31Z</time>
      </trkpt>
      <trkpt lat="40.357393" lon="-5.795033">
        <ele>1541.306</ele>
        <time>2021-09-15T14:58:11Z</time>
      </trkpt>
      <trkpt lat="40.357429" lon="-5.794956">
        <ele>1540.226</ele>
        <time>2021-09-15T14:58:51Z</time>
      </trkpt>
      <trkpt lat="40.357460" lon="-5.794893">
        <ele>1539.708</ele>
        <time>2021-09-15T14:59:31Z</time>
      </trkpt>
      <trkpt lat="40.357424" lon="-5.794848">
        <ele>1538.326</ele>
        <time>2021-09-15T15:00:11Z</time>
      </trkpt>
      <trkpt lat="40.357396" lon="-5.794814">
        <ele>1537.141</ele>
        <time>2021-09-15T15:00:51Z</time>
      </trkpt>
      <trkpt lat="40.357307" lon="-5.794875">
        <ele>1536.546</ele>
        <time>2021-09-15T15:01:31Z</time>
      </trkpt>
      <trkpt lat="40.357209" lon="-5.794935">
        <ele>1536.277</ele>
        <time>2021-09-15T15:02:11Z</time>
      </trkpt>
      <trkpt lat="40.357122" lon="-5.794948">
        <ele>1535.432</ele>
        <time>2021-09-15T15:02:51Z</time>
      </trkpt>
      <trkpt lat="40.357008" lon="-5.794966">
        <ele>1534.214</ele>
        <time>2021-09-15T15:03:31Z</time>
      </trkpt>
      <trkpt lat="40.356921" lon="-5.794973">
        <ele>1533.970</ele>
        <time>2021-09-15T15:04:11Z</time>
      </trkpt>
      <trkpt lat="40.356921" lon="-5.794865">
        <ele>1532.160</ele>
        <time>2021-09-15T15:04:51Z</time>
      </trkpt>
      <trkpt lat="40.356920" lon="-5.794698">
        <ele>1529.739</ele>
        <time>2021-09-15T15:05:31Z</time>
      </trkpt>
      <trkpt lat="40.356943" lon="-5.794392">
        <ele>1527.701</ele>
        <time>2021-09-15T15:06:11Z</time>
      </trkpt>
      <trkpt lat="40.356960" lon="-5.794122">
        <ele>1525.621</ele>
        <time>2021-09-15T15:06:51Z</time>
      </trkpt>
      <trkpt lat="40.356981" lon="-5.793862">
        <ele>1523.408</ele>
        <time>2021-09-15T15:07:31Z</time>
      </trkpt>
      <trkpt lat="40.357004" lon="-5.793655">
        <ele>1521.371</ele>
        <time>2021-09-15T15:08:11Z</time>
      </trkpt>
      <trkpt lat="40.357018" lon="-5.793534">
        <ele>1520.376</ele>
        <time>2021-09-15T15:08:51Z</time>
      </trkpt>
      <trkpt lat="40.357057" lon="-5.793382">
        <ele>1518.581</ele>
        <time>2021-09-15T15:09:31Z</time>
      </trkpt>
      <trkpt lat="40.357029" lon="-5.793232">
        <ele>1517.212</ele>
        <time>2021-09-15T15:10:11Z</time>
      </trkpt>
      <trkpt lat="40.356951" lon="-5.793127">
        <ele>1517.157</ele>
        <time>2021-09-15T15:10:51Z</time>
      </trkpt>
      <trkpt lat="40.356794" lon="-5.792992">
        <ele>1515.569</ele>
        <time>2021-09-15T15:11:31Z</time>
      </trkpt>
      <trkpt lat="40.356698" lon="-5.792916">
        <ele>1513.925</ele>
        <time>2021-09-15T15:12:11Z</time>
      </trkpt>
      <trkpt lat="40.356373" lon="-5.792838">
        <ele>1511.295</ele>
        <time>2021-09-15T15:12:51Z</time>
      </trkpt>
      <trkpt lat="40.356160" lon="-5.792900">
        <ele>1509.353</ele>
        <time>2021-09-15T15:13:31Z</time>
      </trkpt>
      <trkpt lat="40.356013" lon="-5.792926">
        <ele>1508.404</ele>
        <time>2021-09-15T15:14:11Z</time>
      </trkpt>
      <trkpt lat="40.355776" lon="-5.792893">
        <ele>1505.814</ele>
        <time>2021-09-15T15:14:51Z</time>
      </trkpt>
      <trkpt lat="40.355645" lon="-5.792860">
        <ele>1504.908</ele>
        <time>2021-09-15T15:15:31Z</time>
      </trkpt>
      <trkpt lat="40.355573" lon="-5.792776">
        <ele>1503.053</ele>
        <time>2021-09-15T15:16:11Z</time>
      </trkpt>
      <trkpt lat="40.355564" lon="-5.792570">
        <ele>1500.088</ele>
        <time>2021-09-15T15:16:51Z</time>
      </trkpt>
      <trkpt lat="40.355589" lon="-5.792351">
        <ele>1497.373</ele>
        <time>2021-09-15T15:17:31Z</time>
      </trkpt>
      <trkpt lat="40.355795" lon="-5.792159">
        <ele>1494.494</ele>
        <time>2021-09-15T15:18:11Z</time>
      </trkpt>
      <trkpt lat="40.355932" lon="-5.792096">
        <ele>1494.959</ele>
        <time>2021-09-15T15:18:51Z</time>
      </trkpt>
      <trkpt lat="40.356061" lon="-5.791985">
        <ele>1495.661</ele>
        <time>2021-09-15T15:19:31Z</time>
      </trkpt>
      <trkpt lat="40.356229" lon="-5.791802">
        <ele>1495.417</ele>
        <time>2021-09-15T15:20:11Z</time>
      </trkpt>
      <trkpt lat="40.356419" lon="-5.791524">
        <ele>1494.067</ele>
        <time>2021-09-15T15:20:51Z</time>
      </trkpt>
      <trkpt lat="40.356656" lon="-5.791184">
        <ele>1492.273</ele>
        <time>2021-09-15T15:21:31Z</time>
      </trkpt>
      <trkpt lat="40.356772" lon="-5.791010">
        <ele>1490.785</ele>
        <time>2021-09-15T15:22:11Z</time>
      </trkpt>
      <trkpt lat="40.357146" lon="-5.790907">
        <ele>1489.913</ele>
        <time>2021-09-15T15:22:51Z</time>
      </trkpt>
      <trkpt lat="40.357178" lon="-5.790780">
        <ele>1489.808</ele>
        <time>2021-09-15T15:23:31Z</time>
      </trkpt>
      <trkpt lat="40.357086" lon="-5.790424">
        <ele>1488.625</ele>
        <time>2021-09-15T15:24:11Z</time>
      </trkpt>
      <trkpt lat="40.357090" lon="-5.790278">
        <ele>1488.140</ele>
        <time>2021-09-15T15:24:51Z</time>
      </trkpt>
      <trkpt lat="40.357175" lon="-5.789900">
        <ele>1486.195</ele>
        <time>2021-09-15T15:25:31Z</time>
      </trkpt>
      <trkpt lat="40.357192" lon="-5.789744">
        <ele>1484.496</ele>
        <time>2021-09-15T15:26:11Z</time>
      </trkpt>
      <trkpt lat="40.357218" lon="-5.789613">
        <ele>1483.721</ele>
        <time>2021-09-15T15:26:51Z</time>
      </trkpt>
      <trkpt lat="40.357284" lon="-5.789431">
        <ele>1483.473</ele>
        <time>2021-09-15T15:27:31Z</time>
      </trkpt>
      <trkpt lat="40.357368" lon="-5.789220">
        <ele>1482.859</ele>
        <time>2021-09-15T15:28:11Z</time>
      </trkpt>
      <trkpt lat="40.357510" lon="-5.788814">
        <ele>1481.489</ele>
        <time>2021-09-15T15:28:51Z</time>
      </trkpt>
      <trkpt lat="40.357542" lon="-5.788614">
        <ele>1479.591</ele>
        <time>2021-09-15T15:29:31Z</time>
      </trkpt>
      <trkpt lat="40.357641" lon="-5.788346">
        <ele>1477.681</ele>
        <time>2021-09-15T15:30:11Z</time>
      </trkpt>
      <trkpt lat="40.357758" lon="-5.788257">
        <ele>1477.419</ele>
        <time>2021-09-15T15:30:51Z</time>
      </trkpt>
      <trkpt lat="40.357966" lon="-5.788158">
        <ele>1477.208</ele>
        <time>2021-09-15T15:31:31Z</time>
      </trkpt>
      <trkpt lat="40.358177" lon="-5.788033">
        <ele>1476.517</ele>
        <time>2021-09-15T15:32:11Z</time>
      </trkpt>
      <trkpt lat="40.358390" lon="-5.787849">
        <ele>1476.042</ele>
        <time>2021-09-15T15:32:51Z</time>
      </trkpt>
      <trkpt lat="40.358535" lon="-5.787707">
        <ele>1474.837</ele>
        <time>2021-09-15T15:33:31Z</time>
      </trkpt>
      <trkpt lat="40.358644" lon="-5.787624">
        <ele>1473.548</ele>
        <time>2021-09-15T15:34:11Z</time>
      </trkpt>
      <trkpt lat="40.358823" lon="-5.787549">
        <ele>1470.633</ele>
        <time>2021-09-15T15:34:51Z</time>
      </trkpt>
      <trkpt lat="40.359052" lon="-5.787415">
        <ele>1466.365</ele>
        <time>2021-09-15T15:35:31Z</time>
      </trkpt>
      <trkpt lat="40.359154" lon="-5.787336">
        <ele>1464.131</ele>
        <time>2021-09-15T15:36:11Z</time>
      </trkpt>
      <trkpt lat="40.359262" lon="-5.787211">
        <ele>1460.871</ele>
        <time>2021-09-15T15:36:51Z</time>
      </trkpt>
      <trkpt lat="40.359410" lon="-5.787169">
        <ele>1458.671</ele>
        <time>2021-09-15T15:37:31Z</time>
      </trkpt>
      <trkpt lat="40.359451" lon="-5.787246">
        <ele>1459.541</ele>
        <time>2021-09-15T15:38:11Z</time>
      </trkpt>
      <trkpt lat="40.359511" lon="-5.787385">
        <ele>1461.715</ele>
        <time>2021-09-15T15:38:51Z</time>
      </trkpt>
      <trkpt lat="40.359620" lon="-5.787420">
        <ele>1460.208</ele>
        <time>2021-09-15T15:39:31Z</time>
      </trkpt>
      <trkpt lat="40.359710" lon="-5.787414">
        <ele>1458.125</ele>
        <time>2021-09-15T15:40:11Z</time>
      </trkpt>
      <trkpt lat="40.359961" lon="-5.787326">
        <ele>1454.270</ele>
        <time>2021-09-15T15:40:51Z</time>
      </trkpt>
      <trkpt lat="40.360139" lon="-5.787285">
        <ele>1452.985</ele>
        <time>2021-09-15T15:41:31Z</time>
      </trkpt>
      <trkpt lat="40.360246" lon="-5.787245">
        <ele>1451.746</ele>
        <time>2021-09-15T15:42:11Z</time>
      </trkpt>
      <trkpt lat="40.360426" lon="-5.787052">
        <ele>1447.441</ele>
        <time>2021-09-15T15:42:51Z</time>
      </trkpt>
      <trkpt lat="40.360578" lon="-5.786897">
        <ele>1444.693</ele>
        <time>2021-09-15T15:43:31Z</time>
      </trkpt>
      <trkpt lat="40.360707" lon="-5.786771">
        <ele>1441.179</ele>
        <time>2021-09-15T15:44:11Z</time>
      </trkpt>
      <trkpt lat="40.360878" lon="-5.786706">
        <ele>1439.449</ele>
        <time>2021-09-15T15:44:51Z</time>
      </trkpt>
      <trkpt lat="40.361093" lon="-5.786558">
        <ele>1434.845</ele>
        <time>2021-09-15T15:45:31Z</time>
      </trkpt>
      <trkpt lat="40.361348" lon="-5.786442">
        <ele>1430.247</ele>
        <time>2021-09-15T15:46:11Z</time>
      </trkpt>
      <trkpt lat="40.361486" lon="-5.786334">
        <ele>1426.911</ele>
        <time>2021-09-15T15:46:51Z</time>
      </trkpt>
      <trkpt lat="40.361582" lon="-5.786152">
        <ele>1423.008</ele>
        <time>2021-09-15T15:47:31Z</time>
      </trkpt>
      <trkpt lat="40.361801" lon="-5.785954">
        <ele>1418.892</ele>
        <time>2021-09-15T15:48:11Z</time>
      </trkpt>
      <trkpt lat="40.361857" lon="-5.785889">
        <ele>1417.737</ele>
        <time>2021-09-15T15:48:51Z</time>
      </trkpt>
      <trkpt lat="40.361973" lon="-5.785758">
        <ele>1415.142</ele>
        <time>2021-09-15T15:49:31Z</time>
      </trkpt>
      <trkpt lat="40.362116" lon="-5.785665">
        <ele>1412.383</ele>
        <time>2021-09-15T15:50:11Z</time>
      </trkpt>
      <trkpt lat="40.362211" lon="-5.785639">
        <ele>1411.328</ele>
        <time>2021-09-15T15:50:51Z</time>
      </trkpt>
      <trkpt lat="40.362290" lon="-5.785551">
        <ele>1409.260</ele>
        <time>2021-09-15T15:51:31Z</time>
      </trkpt>
      <trkpt lat="40.362329" lon="-5.785435">
        <ele>1407.966</ele>
        <time>2021-09-15T15:52:11Z</time>
      </trkpt>
      <trkpt lat="40.362393" lon="-5.785266">
        <ele>1406.346</ele>
        <time>2021-09-15T15:52:51Z</time>
      </trkpt>
      <trkpt lat="40.362518" lon="-5.784961">
        <ele>1403.466</ele>
        <time>2021-09-15T15:53:31Z</time>
      </trkpt>
      <trkpt lat="40.362696" lon="-5.784585">
        <ele>1399.929</ele>
        <time>2021-09-15T15:54:11Z</time>
      </trkpt>
      <trkpt lat="40.362832" lon="-5.784208">
        <ele>1399.121</ele>
        <time>2021-09-15T15:54:51Z</time>
      </trkpt>
      <trkpt lat="40.362922" lon="-5.783940">
        <ele>1397.408</ele>
        <time>2021-09-15T15:55:31Z</time>
      </trkpt>
      <trkpt lat="40.363068" lon="-5.783615">
        <ele>1394.914</ele>
        <time>2021-09-15T15:56:11Z</time>
      </trkpt>
      <trkpt lat="40.363220" lon="-5.783442">
        <ele>1392.459</ele>
        <time>2021-09-15T15:56:51Z</time>
      </trkpt>
      <trkpt lat="40.363668" lon="-5.783061">
        <ele>1385.054</ele>
        <time>2021-09-15T15:57:31Z</time>
      </trkpt>
      <trkpt lat="40.363980" lon="-5.782940">
        <ele>1378.515</ele>
        <time>2021-09-15T15:58:11Z</time>
      </trkpt>
      <trkpt lat="40.364268" lon="-5.782820">
        <ele>1373.930</ele>
        <time>2021-09-15T15:58:51Z</time>
      </trkpt>
      <trkpt lat="40.364409" lon="-5.782759">
        <ele>1373.182</ele>
        <time>2021-09-15T15:59:31Z</time>
      </trkpt>
      <trkpt lat="40.364595" lon="-5.782615">
        <ele>1371.998</ele>
        <time>2021-09-15T16:00:11Z</time>
      </trkpt>
      <trkpt lat="40.364764" lon="-5.782472">
        <ele>1370.588</ele>
        <time>2021-09-15T16:00:51Z</time>
      </trkpt>
      <trkpt lat="40.364862" lon="-5.782732">
        <ele>1370.878</ele>
        <time>2021-09-15T16:01:31Z</time>
      </trkpt>
      <trkpt lat="40.364902" lon="-5.783021">
        <ele>1371.633</ele>
        <time>2021-09-15T16:02:11Z</time>
      </trkpt>
      <trkpt lat="40.364832" lon="-5.783446">
        <ele>1372.826</ele>
        <time>2021-09-15T16:02:51Z</time>
      </trkpt>
      <trkpt lat="40.364759" lon="-5.783923">
        <ele>1370.608</ele>
        <time>2021-09-15T16:03:31Z</time>
      </trkpt>
      <trkpt lat="40.364731" lon="-5.784258">
        <ele>1370.055</ele>
        <time>2021-09-15T16:04:11Z</time>
      </trkpt>
      <trkpt lat="40.364754" lon="-5.784570">
        <ele>1370.480</ele>
        <time>2021-09-15T16:04:51Z</time>
      </trkpt>
      <trkpt lat="40.364923" lon="-5.784801">
        <ele>1370.745</ele>
        <time>2021-09-15T16:05:31Z</time>
      </trkpt>
      <trkpt lat="40.364986" lon="-5.785049">
        <ele>1371.276</ele>
        <time>2021-09-15T16:06:11Z</time>
      </trkpt>
      <trkpt lat="40.364971" lon="-5.785283">
        <ele>1371.551</ele>
        <time>2021-09-15T16:06:51Z</time>
      </trkpt>
      <trkpt lat="40.364906" lon="-5.785580">
        <ele>1372.773</ele>
        <time>2021-09-15T16:07:31Z</time>
      </trkpt>
      <trkpt lat="40.364913" lon="-5.785766">
        <ele>1372.849</ele>
        <time>2021-09-15T16:08:11Z</time>
      </trkpt>
      <trkpt lat="40.364937" lon="-5.786007">
        <ele>1373.649</ele>
        <time>2021-09-15T16:08:51Z</time>
      </trkpt>
      <trkpt lat="40.365075" lon="-5.786465">
        <ele>1374.651</ele>
        <time>2021-09-15T16:09:31Z</time>
      </trkpt>
      <trkpt lat="40.365202" lon="-5.786730">
        <ele>1376.401</ele>
        <time>2021-09-15T16:10:11Z</time>
      </trkpt>
      <trkpt lat="40.365542" lon="-5.787097">
        <ele>1374.411</ele>
        <time>2021-09-15T16:10:51Z</time>
      </trkpt>
      <trkpt lat="40.365741" lon="-5.787296">
        <ele>1374.008</ele>
        <time>2021-09-15T16:11:31Z</time>
      </trkpt>
      <trkpt lat="40.365842" lon="-5.787392">
        <ele>1373.613</ele>
        <time>2021-09-15T16:12:11Z</time>
      </trkpt>
      <trkpt lat="40.365926" lon="-5.787378">
        <ele>1373.078</ele>
        <time>2021-09-15T16:12:51Z</time>
      </trkpt>
    </trkseg>
  </trk></gpx>